Time;durP1;ratioP1;P1;durP2;ratioP2;P2;SDS_P1;SDS_P2;PMS_P1;PMS_P2;Temp;Humidity;BMP_temperature;BMP_pressure;BME280_temperature;BME280_humidity;BME280_pressure;Samples;Min_cycle;Max_cycle;Signal;HPM_P1;HPM_P2
2022/03/31 00:02:12;;;;;;;0.60;0.60;;;;;;;4.05;71.52;99396.78;6194200;23;20004;-75
2022/03/31 00:04:38;;;;;;;0.50;0.50;;;;;;;4.05;71.80;99417.59;6195205;23;20001;-74
2022/03/31 00:07:05;;;;;;;0.88;0.50;;;;;;;3.97;72.25;99427.78;6196049;23;20036;-76
2022/03/31 00:09:31;;;;;;;0.45;0.40;;;;;;;3.95;72.16;99424.47;6194649;23;20074;-74
2022/03/31 00:12:00;;;;;;;2.15;0.57;;;;;;;3.98;72.21;99434.81;6195392;23;20005;-75
2022/03/31 00:14:28;;;;;;;1.30;0.50;;;;;;;3.90;71.77;99443.34;6224005;23;20020;-74
2022/03/31 00:16:54;;;;;;;1.55;0.63;;;;;;;3.81;72.56;99429.41;6223470;23;20005;-74
2022/03/31 00:19:19;;;;;;;1.13;0.60;;;;;;;3.72;72.50;99428.16;6223281;23;20031;-74
2022/03/31 00:22:23;;;;;;;0.52;0.45;;;;;;;3.66;71.88;99440.81;6223061;23;20004;-75
2022/03/31 00:24:48;;;;;;;0.52;0.50;;;;;;;3.57;72.01;99434.13;6197606;23;20004;-74
2022/03/31 00:27:14;;;;;;;3.90;0.70;;;;;;;3.49;71.38;99429.16;6197589;23;20020;-75
2022/03/31 00:29:39;;;;;;;0.77;0.57;;;;;;;3.42;72.19;99431.19;6223373;23;20015;-73
2022/03/31 00:32:05;;;;;;;0.63;0.40;;;;;;;3.30;72.18;99428.50;6195626;23;20005;-76
2022/03/31 00:34:31;;;;;;;1.27;0.60;;;;;;;3.19;72.74;99438.34;6169525;23;20091;-74
2022/03/31 00:36:57;;;;;;;3.72;0.80;;;;;;;3.09;73.43;99446.25;6221294;23;20012;-75
2022/03/31 00:39:29;;;;;;;1.75;0.90;;;;;;;2.96;73.21;99442.78;6194310;23;20303;-74
2022/03/31 00:41:55;;;;;;;1.02;0.93;;;;;;;2.89;73.70;99439.38;6222405;23;20490;-77
2022/03/31 00:44:21;;;;;;;0.90;0.80;;;;;;;2.97;75.09;99451.69;6222624;23;20000;-75
2022/03/31 00:46:54;;;;;;;1.15;0.90;;;;;;;3.05;74.61;99439.66;6220432;23;20004;-73
2022/03/31 00:49:21;;;;;;;0.98;0.98;;;;;;;3.07;74.20;99429.47;6192315;23;20012;-75
2022/03/31 00:51:49;;;;;;;3.13;1.00;;;;;;;3.15;74.19;99453.38;6220099;23;20001;-74
2022/03/31 00:54:16;;;;;;;2.17;0.90;;;;;;;3.16;74.25;99452.31;6219871;23;20000;-73
2022/03/31 00:56:42;;;;;;;1.92;1.15;;;;;;;3.18;74.08;99446.69;6193094;23;20009;-74
2022/03/31 00:59:11;;;;;;;0.80;0.80;;;;;;;3.13;74.31;99440.09;6195922;23;20055;-74
2022/03/31 01:01:47;;;;;;;2.72;1.00;;;;;;;3.15;74.15;99453.38;6224188;23;20400;-72
2022/03/31 01:04:13;;;;;;;2.38;0.90;;;;;;;3.08;73.84;99437.31;6196860;23;20000;-74
2022/03/31 01:06:47;;;;;;;3.28;1.08;;;;;;;3.09;74.05;99432.72;6221477;23;20685;-73
2022/03/31 01:09:13;;;;;;;1.42;1.00;;;;;;;3.23;73.67;99442.19;6220894;23;19997;-73
2022/03/31 01:11:39;;;;;;;3.13;1.08;;;;;;;3.21;73.63;99438.91;6218667;23;20000;-75
2022/03/31 01:14:10;;;;;;;1.58;1.08;;;;;;;3.45;72.89;99452.31;6194307;23;20074;-73
2022/03/31 01:16:36;;;;;;;7.22;1.00;;;;;;;3.45;73.00;99446.91;6193593;23;20020;-73
2022/03/31 01:19:06;;;;;;;2.20;0.90;;;;;;;3.42;72.07;99452.81;6216807;23;20005;-76
2022/03/31 01:21:48;;;;;;;2.50;1.25;;;;;;;3.42;71.84;99452.81;6220200;23;20031;-73
2022/03/31 01:24:14;;;;;;;2.47;1.50;;;;;;;3.40;71.39;99444.09;6191517;23;20001;-72
2022/03/31 01:26:40;;;;;;;5.55;1.23;;;;;;;3.45;72.06;99460.44;6190214;23;20012;-73
2022/03/31 01:29:10;;;;;;;1.15;1.05;;;;;;;3.37;72.12;99453.50;6216436;23;20032;-74
2022/03/31 01:31:38;;;;;;;2.33;1.30;;;;;;;3.40;72.32;99460.31;6187175;23;20420;-73
2022/03/31 01:34:05;;;;;;;3.70;1.20;;;;;;;3.39;72.22;99456.81;6214407;23;20008;-73
2022/03/31 01:36:31;;;;;;;3.53;1.30;;;;;;;3.46;71.79;99456.63;6213901;23;20592;-75
2022/03/31 01:38:57;;;;;;;2.45;1.45;;;;;;;3.40;71.93;99454.91;6215073;23;20028;-73
2022/03/31 01:41:23;;;;;;;1.75;1.33;;;;;;;3.41;71.79;99456.56;6215500;23;20035;-74
2022/03/31 01:43:48;;;;;;;3.38;1.55;;;;;;;3.42;71.87;99455.50;6216410;23;20087;-73
2022/03/31 01:46:14;;;;;;;2.88;1.33;;;;;;;3.29;71.84;99427.72;6219028;23;20435;-73
2022/03/31 01:48:40;;;;;;;1.83;1.40;;;;;;;3.40;72.44;99444.94;6189161;23;20012;-72
2022/03/31 01:51:07;;;;;;;3.28;1.50;;;;;;;3.45;72.14;99453.13;6188460;23;20013;-74
2022/03/31 01:53:39;;;;;;;3.15;1.83;;;;;;;3.40;72.31;99444.94;6187419;23;20008;-75
2022/03/31 01:56:06;;;;;;;4.55;1.58;;;;;;;3.40;71.58;99449.50;6190878;23;20163;-74
2022/03/31 01:58:32;;;;;;;2.10;1.10;;;;;;;3.45;72.04;99436.91;6168146;23;20791;-70
2022/03/31 02:00:58;;;;;;;6.07;1.45;;;;;;;3.48;71.89;99441.03;6213532;23;20028;-70
2022/03/31 02:03:24;;;;;;;1.95;1.27;;;;;;;3.51;71.77;99451.34;6187194;23;20005;-68
2022/03/31 02:05:50;;;;;;;1.27;0.95;;;;;;;3.47;71.85;99433.97;6185720;23;20055;-70
2022/03/31 02:08:17;;;;;;;7.55;1.23;;;;;;;3.38;72.40;99440.84;6185618;23;20005;-70
2022/03/31 02:10:42;;;;;;;1.33;1.10;;;;;;;3.49;71.92;99448.06;6185776;23;20493;-71
2022/03/31 02:13:08;;;;;;;1.65;1.15;;;;;;;3.61;71.81;99456.94;6212987;23;20012;-70
2022/03/31 02:15:34;;;;;;;2.13;1.15;;;;;;;3.61;71.14;99465.03;6213357;23;20004;-70
2022/03/31 02:18:02;;;;;;;7.82;1.13;;;;;;;3.50;71.18;99455.09;6214766;23;20008;-71
2022/03/31 02:20:30;;;;;;;2.38;0.93;;;;;;;3.41;71.34;99461.97;6187552;23;20013;-69
2022/03/31 02:22:58;;;;;;;3.53;0.90;;;;;;;3.31;71.91;99446.38;6185716;23;20044;-69
2022/03/31 02:25:24;;;;;;;1.13;0.80;;;;;;;3.39;71.73;99454.09;6214074;23;20004;-68
2022/03/31 02:27:51;;;;;;;2.40;0.88;;;;;;;3.32;72.17;99443.44;6211606;23;20072;-69
2022/03/31 02:30:17;;;;;;;1.30;1.00;;;;;;;3.29;71.92;99446.63;6212982;23;20009;-68
2022/03/31 02:32:43;;;;;;;2.65;1.30;;;;;;;3.31;72.29;99458.03;6211936;23;20031;-69
2022/03/31 02:35:08;;;;;;;1.48;1.00;;;;;;;3.30;72.06;99463.66;6188099;23;20012;-68
2022/03/31 02:37:34;;;;;;;7.18;1.52;;;;;;;3.24;72.14;99470.03;6214640;23;20008;-69
2022/03/31 02:40:00;;;;;;;7.35;1.73;;;;;;;3.16;72.14;99462.31;6212950;23;20011;-69
2022/03/31 02:42:26;;;;;;;1.85;1.20;;;;;;;3.15;72.38;99464.19;6188042;23;20005;-68
2022/03/31 02:44:51;;;;;;;4.53;1.27;;;;;;;3.11;72.16;99455.75;6187149;23;20015;-69
2022/03/31 02:47:17;;;;;;;2.05;1.13;;;;;;;3.16;72.78;99465.03;6210687;23;20008;-69
2022/03/31 02:49:44;;;;;;;1.50;1.13;;;;;;;3.12;72.18;99454.66;6210651;23;20004;-69
2022/03/31 02:52:09;;;;;;;4.65;0.80;;;;;;;3.01;72.08;99463.66;6159592;23;20015;-70
2022/03/31 02:57:22;;;;;;;1.25;1.00;;;;;;;2.86;72.52;99469.56;6214651;23;20016;-71
2022/03/31 02:59:48;;;;;;;1.55;1.00;;;;;;;2.80;73.11;99462.41;6188248;23;20008;-68
2022/03/31 03:02:14;;;;;;;1.55;1.05;;;;;;;2.86;72.91;99469.56;6188743;23;20016;-68
2022/03/31 03:04:40;;;;;;;1.90;1.42;;;;;;;2.77;72.15;99462.88;6186783;23;20063;-71
2022/03/31 03:07:05;;;;;;;1.02;0.90;;;;;;;2.69;72.74;99460.56;6188235;23;20016;-69
2022/03/31 03:09:31;;;;;;;5.10;1.30;;;;;;;2.72;72.52;99470.91;6163391;23;20071;-70
2022/03/31 03:11:57;;;;;;;1.55;1.17;;;;;;;2.64;72.11;99463.97;6159263;23;20422;-70
2022/03/31 03:14:23;;;;;;;5.32;1.30;;;;;;;2.64;72.04;99465.84;6185878;23;20004;-70
2022/03/31 03:16:48;;;;;;;1.67;1.08;;;;;;;2.59;72.64;99472.78;6212577;23;20062;-69
2022/03/31 03:19:14;;;;;;;1.55;1.05;;;;;;;2.53;72.48;99481.81;6184450;23;20039;-70
2022/03/31 03:21:40;;;;;;;3.90;1.65;;;;;;;2.49;72.51;99477.94;6161472;23;20443;-68
2022/03/31 03:24:05;;;;;;;5.75;1.30;;;;;;;2.42;72.81;99477.25;6185168;23;20327;-70
2022/03/31 03:26:31;;;;;;;7.05;1.80;;;;;;;2.35;73.45;99477.38;6214342;23;20012;-70
2022/03/31 03:28:57;;;;;;;5.75;2.17;;;;;;;2.30;73.65;99485.34;6215215;23;20301;-69
2022/03/31 03:31:22;;;;;;;4.10;2.22;;;;;;;2.29;73.81;99489.09;6214232;23;20008;-69
2022/03/31 03:33:53;;;;;;;5.25;2.40;;;;;;;2.34;72.85;99480.31;6215863;23;20357;-72
2022/03/31 03:36:19;;;;;;;4.60;2.38;;;;;;;2.37;73.30;99479.84;6216509;23;20012;-70
2022/03/31 03:38:45;;;;;;;6.25;2.10;;;;;;;2.43;73.29;99489.69;6214370;23;20440;-69
2022/03/31 03:41:13;;;;;;;7.13;2.33;;;;;;;2.49;72.06;99482.53;6215419;23;20004;-68
2022/03/31 03:43:40;;;;;;;3.78;2.20;;;;;;;2.43;72.29;99478.91;6187961;23;20054;-68
2022/03/31 03:46:06;;;;;;;3.85;2.28;;;;;;;2.43;72.86;99484.28;6213880;23;20008;-70
2022/03/31 03:48:32;;;;;;;4.15;2.67;;;;;;;2.32;72.34;99485.13;6188084;23;20006;-70
2022/03/31 03:50:57;;;;;;;7.22;2.80;;;;;;;2.12;72.55;99483.59;6187367;23;20012;-70
2022/03/31 03:53:23;;;;;;;8.75;2.40;;;;;;;2.07;72.77;99486.16;6188215;23;20070;-70
2022/03/31 03:55:48;;;;;;;5.10;3.08;;;;;;;1.90;73.63;99470.66;6213345;23;20005;-70
2022/03/31 03:58:14;;;;;;;4.75;3.00;;;;;;;1.85;73.28;99483.19;6163480;23;20574;-70
2022/03/31 04:00:40;;;;;;;3.80;2.72;;;;;;;1.82;74.16;99484.47;6212489;23;20297;-69
2022/03/31 04:03:18;;;;;;;5.10;2.80;;;;;;;1.68;74.57;99477.63;6215609;23;20095;-71
2022/03/31 04:05:43;;;;;;;3.55;2.65;;;;;;;1.72;74.50;99495.00;6187854;23;20032;-68
2022/03/31 04:08:08;;;;;;;6.43;2.97;;;;;;;1.67;74.82;99493.00;6187969;23;20044;-69
2022/03/31 04:10:34;;;;;;;5.95;2.88;;;;;;;1.68;74.88;99499.19;6188460;23;20020;-68
2022/03/31 04:13:00;;;;;;;6.55;3.05;;;;;;;1.67;75.19;99513.75;6162026;23;20008;-71
2022/03/31 04:15:28;;;;;;;3.97;2.97;;;;;;;1.59;74.91;99505.97;6162841;23;20015;-72
2022/03/31 04:17:54;;;;;;;5.95;2.55;;;;;;;1.52;75.22;99506.91;6212902;23;20094;-69
2022/03/31 04:20:20;;;;;;;5.30;3.25;;;;;;;1.47;75.10;99504.06;6186794;23;20015;-71
2022/03/31 04:22:45;;;;;;;10.57;3.40;;;;;;;1.56;74.99;99524.25;6212149;23;20032;-71
2022/03/31 04:25:13;;;;;;;9.90;3.08;;;;;;;1.51;75.14;99515.22;6213261;23;20032;-71
2022/03/31 04:27:40;;;;;;;5.82;3.35;;;;;;;1.35;75.36;99511.28;6185071;23;20012;-69
2022/03/31 04:30:08;;;;;;;7.03;3.25;;;;;;;1.36;75.62;99524.53;6214597;23;20011;-70
2022/03/31 04:32:33;;;;;;;11.68;3.47;;;;;;;1.31;76.02;99520.88;6213943;23;20004;-71
2022/03/31 04:34:59;;;;;;;4.25;3.20;;;;;;;1.26;76.70;99523.44;6214268;23;20013;-70
2022/03/31 04:37:24;;;;;;;5.32;3.22;;;;;;;1.15;76.44;99517.72;6166836;23;20043;-70
2022/03/31 04:39:50;;;;;;;5.90;3.45;;;;;;;1.14;76.27;99526.03;6218117;23;20011;-70
2022/03/31 04:42:15;;;;;;;7.07;3.72;;;;;;;1.09;76.50;99518.66;6187986;23;20012;-71
2022/03/31 04:44:41;;;;;;;4.90;3.38;;;;;;;1.05;77.00;99517.44;6159436;23;20012;-71
2022/03/31 04:47:07;;;;;;;5.57;3.83;;;;;;;1.15;76.54;99533.88;6185319;23;20339;-71
2022/03/31 04:49:34;;;;;;;5.05;3.95;;;;;;;1.23;77.36;99530.09;6211664;23;20004;-70
2022/03/31 04:52:00;;;;;;;6.43;3.60;;;;;;;1.19;76.29;99529.69;6211868;23;20168;-70
2022/03/31 04:54:26;;;;;;;6.72;4.03;;;;;;;1.12;76.40;99515.50;6213921;23;19993;-69
2022/03/31 04:56:51;;;;;;;6.78;3.80;;;;;;;1.21;76.37;99522.25;6161516;23;20012;-70
2022/03/31 04:59:17;;;;;;;4.68;3.42;;;;;;;1.26;76.46;99523.44;6215308;23;20100;-70
2022/03/31 05:01:42;;;;;;;7.72;3.92;;;;;;;1.30;75.82;99532.69;6187855;23;20040;-70
2022/03/31 05:04:09;;;;;;;8.55;3.53;;;;;;;1.25;75.45;99532.56;6188934;23;20077;-69
2022/03/31 05:06:35;;;;;;;9.15;3.38;;;;;;;1.19;76.42;99535.09;6214417;23;20149;-71
2022/03/31 05:09:01;;;;;;;4.25;2.92;;;;;;;1.11;75.96;99538.09;6188745;23;20072;-70
2022/03/31 05:11:30;;;;;;;3.92;3.13;;;;;;;1.07;75.87;99531.53;6214234;23;20098;-69
2022/03/31 05:13:55;;;;;;;6.28;3.30;;;;;;;1.13;76.72;99543.28;6186028;23;20384;-69
2022/03/31 05:16:22;;;;;;;5.03;3.45;;;;;;;1.09;76.76;99534.00;6162249;23;20016;-69
2022/03/31 05:18:48;;;;;;;6.20;2.83;;;;;;;1.21;76.34;99554.56;6209290;23;20067;-70
2022/03/31 05:21:16;;;;;;;6.55;3.42;;;;;;;1.10;75.75;99541.84;6190092;23;20008;-71
2022/03/31 05:23:49;;;;;;;6.28;3.33;;;;;;;1.15;75.76;99552.75;6185256;23;20027;-70
2022/03/31 05:26:14;;;;;;;7.95;3.60;;;;;;;1.20;76.09;99554.78;6188194;23;20099;-70
2022/03/31 05:28:49;;;;;;;4.47;3.00;;;;;;;1.00;75.51;99552.31;6218584;23;20062;-71
2022/03/31 05:31:41;;;;;;;;;;;;;;;;;;;;;
2022/03/31 05:34:16;;;;;;;5.55;3.40;;;;;;;0.84;76.27;99543.78;6220878;23;20027;-71
2022/03/31 05:36:41;;;;;;;6.03;3.08;;;;;;;0.79;76.22;99550.88;6166791;23;20004;-71
2022/03/31 05:39:07;;;;;;;11.93;3.25;;;;;;;0.79;76.43;99573.25;6215441;23;20008;-70
2022/03/31 05:41:33;;;;;;;5.75;3.03;;;;;;;0.59;77.43;99548.41;6216607;23;20012;-69
2022/03/31 05:44:04;;;;;;;8.07;3.00;;;;;;;0.60;77.50;99563.47;6187652;23;20005;-70
2022/03/31 05:46:29;;;;;;;6.78;3.85;;;;;;;0.36;77.67;99552.53;6189108;23;20055;-72
2022/03/31 05:48:55;;;;;;;3.60;2.90;;;;;;;0.31;78.23;99563.13;6214276;23;20017;-70
2022/03/31 05:51:23;;;;;;;9.88;2.95;;;;;;;0.19;77.44;99557.66;6219750;23;20016;-71
2022/03/31 05:53:50;;;;;;;8.70;3.22;;;;;;;0.11;78.09;99561.41;6192044;23;20054;-71
2022/03/31 05:56:16;;;;;;;5.25;2.83;;;;;;;0.09;79.26;99574.25;6214930;23;20004;-69
2022/03/31 05:58:59;;;;;;;6.30;3.58;;;;;;;-0.03;78.80;99562.53;6215527;23;20011;-69
2022/03/31 06:01:24;;;;;;;5.18;2.97;;;;;;;0.04;79.35;99584.00;6187637;23;20012;-69
2022/03/31 06:03:55;;;;;;;5.55;3.42;;;;;;;-0.10;78.89;99564.44;6220637;23;20083;-69
2022/03/31 06:06:20;;;;;;;8.32;3.75;;;;;;;-0.02;79.24;99589.22;6217464;23;20043;-70
2022/03/31 06:08:45;;;;;;;6.38;3.80;;;;;;;0.01;79.77;99593.34;6192203;23;20004;-69
2022/03/31 06:11:13;;;;;;;8.25;4.25;;;;;;;-0.10;79.58;99578.72;6216731;23;20068;-69
2022/03/31 06:13:56;;;;;;;4.63;3.25;;;;;;;-0.01;79.39;99600.81;6168515;23;20005;-68
2022/03/31 06:16:21;;;;;;;7.93;3.90;;;;;;;-0.20;79.93;99598.00;6215851;23;20419;-73
2022/03/31 06:18:49;;;;;;;7.35;3.97;;;;;;;-0.27;79.67;99602.59;6193355;23;20009;-72
2022/03/31 06:21:16;;;;;;;6.43;3.42;;;;;;;-0.21;79.53;99612.47;6197927;23;20012;-74
2022/03/31 06:23:41;;;;;;;11.30;3.40;;;;;;;-0.22;80.22;99604.63;6221137;23;20362;-70
2022/03/31 06:26:07;;;;;;;6.07;4.13;;;;;;;-0.16;80.15;99619.06;6188597;23;20071;-69
2022/03/31 06:28:33;;;;;;;5.20;3.67;;;;;;;-0.19;80.01;99618.47;6215567;23;20039;-69
2022/03/31 06:31:00;;;;;;;5.88;3.72;;;;;;;-0.06;80.23;99611.38;6189880;23;20066;-72
2022/03/31 06:33:28;;;;;;;6.18;3.97;;;;;;;-0.02;80.69;99616.09;6219750;23;20027;-71
2022/03/31 06:35:53;;;;;;;6.85;3.55;;;;;;;0.03;79.30;99607.41;6194464;23;20059;-71
2022/03/31 06:38:19;;;;;;;12.55;4.43;;;;;;;0.15;79.76;99594.88;6168257;23;20008;-73
2022/03/31 06:41:06;;;;;;;7.82;3.58;;;;;;;0.36;79.22;99611.69;6168033;23;20023;-72
2022/03/31 06:43:40;;;;;;;5.85;3.50;;;;;;;0.61;78.74;99641.28;6199017;23;20402;-72
2022/03/31 06:46:16;;;;;;;6.32;3.75;;;;;;;0.54;77.98;99619.03;6192207;23;20013;-72
2022/03/31 06:49:13;;;;;;;5.80;3.30;;;;;;;0.56;77.92;99621.50;6218190;23;20060;-72
2022/03/31 06:52:02;;;;;;;13.77;4.35;;;;;;;0.45;78.17;99621.16;6225352;23;20012;-76
2022/03/31 06:54:43;;;;;;;6.72;3.95;;;;;;;0.60;77.65;99644.19;6198662;23;20001;-75
2022/03/31 06:57:09;;;;;;;5.97;4.22;;;;;;;0.55;77.54;99631.41;6202521;23;20005;-76
2022/03/31 06:59:55;;;;;;;6.82;4.15;;;;;;;0.68;77.37;99652.00;6198343;23;20162;-75
2022/03/31 07:02:23;;;;;;;7.93;4.38;;;;;;;0.51;77.72;99625.66;6177636;23;20012;-76
2022/03/31 07:04:55;;;;;;;6.40;4.05;;;;;;;0.76;77.79;99654.44;6173435;23;20013;-75
2022/03/31 07:07:24;;;;;;;7.63;3.92;;;;;;;0.77;77.46;99645.28;6197906;23;20047;-74
2022/03/31 07:09:59;;;;;;;;;;;;;;;;;;;;;
2022/03/31 07:12:25;;;;;;;8.98;4.85;;;;;;;0.87;76.78;99628.66;6225845;23;20047;-75
2022/03/31 07:15:12;;;;;;;4.85;4.25;;;;;;;1.45;77.22;99684.00;6200108;23;20034;-76
2022/03/31 07:17:45;;;;;;;6.93;4.72;;;;;;;1.77;75.06;99664.13;6174378;23;20013;-76
2022/03/31 07:20:18;;;;;;;9.60;4.60;;;;;;;2.27;74.00;99678.19;6227274;23;20083;-75
2022/03/31 07:22:46;;;;;;;5.55;3.45;;;;;;;2.26;72.23;99673.88;6199756;23;20020;-75
2022/03/31 07:25:16;;;;;;;5.25;3.80;;;;;;;2.09;72.00;99686.34;6199328;23;20076;-76
2022/03/31 07:27:42;;;;;;;5.22;3.80;;;;;;;2.14;71.96;99678.38;6199962;23;20008;-75
2022/03/31 07:30:07;;;;;;;4.68;3.47;;;;;;;2.50;71.53;99694.66;6200506;23;20015;-74
2022/03/31 07:32:33;;;;;;;4.47;3.17;;;;;;;2.50;70.68;99679.31;6226449;23;20000;-73
2022/03/31 07:35:01;;;;;;;7.20;3.22;;;;;;;2.62;70.10;99698.25;6149432;23;20015;-76
2022/03/31 07:37:26;;;;;;;4.28;2.92;;;;;;;2.68;70.18;99712.69;6223295;23;20012;-74
2022/03/31 07:39:52;;;;;;;4.13;2.80;;;;;;;2.86;69.79;99706.38;6173560;23;20005;-74
2022/03/31 07:42:17;;;;;;;4.55;2.90;;;;;;;3.00;69.34;99709.69;6224318;23;20012;-73
2022/03/31 07:44:43;;;;;;;3.65;2.67;;;;;;;3.10;68.91;99715.34;6197152;23;20562;-76
2022/03/31 07:47:14;;;;;;;5.93;2.22;;;;;;;3.36;68.36;99703.25;6194570;23;20024;-74
2022/03/31 07:49:49;;;;;;;;;;;;;;;;;;;;;
2022/03/31 07:52:21;;;;;;;3.90;2.28;;;;;;;3.99;66.28;99708.88;6225568;23;20031;-76
2022/03/31 07:55:04;;;;;;;;;;;;;;;;;;;;;
2022/03/31 07:57:38;;;;;;;7.43;2.40;;;;;;;4.62;64.50;99698.13;6226123;23;20537;-76
2022/03/31 08:00:12;;;;;;;4.23;2.37;;;;;;;4.48;63.15;99670.53;6225313;23;20528;-74
2022/03/31 08:03:01;;;;;;;2.10;1.90;;;;;;;4.66;63.10;99697.41;6175645;23;20008;-75
2022/03/31 08:05:33;;;;;;;6.35;2.03;;;;;;;4.78;60.93;99691.09;6177180;23;20011;-75
2022/03/31 08:08:16;;;;;;;2.55;1.88;;;;;;;4.67;60.62;99685.50;6226319;23;20012;-76
2022/03/31 08:10:50;;;;;;;5.07;1.70;;;;;;;4.88;61.30;99702.09;6199986;23;20047;-75
2022/03/31 08:13:46;;;;;;;;;;;;;;;;;;;;;
2022/03/31 08:16:24;;;;;;;9.05;1.88;;;;;;;4.88;60.16;99694.78;6227212;23;20027;-75
2022/03/31 08:18:50;;;;;;;3.83;1.80;;;;;;;5.15;59.57;99717.69;6201363;23;20001;-74
2022/03/31 08:21:16;;;;;;;3.25;1.65;;;;;;;5.17;59.63;99696.56;6228145;23;20317;-76
2022/03/31 08:23:54;;;;;;;;;;;;;;;;;;;;;
2022/03/31 08:26:32;;;;;;;2.53;1.75;;;;;;;5.05;59.79;99730.00;6227343;23;20352;-74
2022/03/31 08:29:00;;;;;;;9.40;2.30;;;;;;;5.20;59.47;99709.66;6200718;23;20008;-74
2022/03/31 08:31:38;;;;;;;;;;;;;;;;;;;;;
2022/03/31 08:34:05;;;;;;;4.38;2.17;;;;;;;7.20;56.44;99718.38;6179789;23;20024;-75
2022/03/31 08:36:38;;;;;;;2.03;1.88;;;;;;;9.14;50.73;99702.97;6175518;23;20035;-77
2022/03/31 08:39:23;;;;;;;4.60;2.37;;;;;;;9.20;47.92;99738.19;6201398;23;20000;-75
2022/03/31 08:41:49;;;;;;;3.92;1.90;;;;;;;7.77;50.01;99712.22;6201288;23;20460;-75
2022/03/31 08:44:18;;;;;;;3.92;2.03;;;;;;;6.73;52.77;99717.19;6201150;23;20248;-75
2022/03/31 08:46:49;;;;;;;3.50;2.28;;;;;;;6.26;54.12;99737.63;6227128;23;20008;-75
2022/03/31 08:49:19;;;;;;;4.43;1.90;;;;;;;5.81;54.88;99731.38;6225470;23;20035;-76
2022/03/31 08:51:56;;;;;;;4.03;1.80;;;;;;;5.84;56.35;99739.00;6176220;23;20032;-75
2022/03/31 08:54:44;;;;;;;2.85;2.17;;;;;;;6.49;56.13;99752.03;6200221;23;20011;-77
2022/03/31 08:57:10;;;;;;;4.35;2.45;;;;;;;7.32;52.49;99744.31;6200567;23;20004;-76
2022/03/31 08:59:36;;;;;;;4.65;1.90;;;;;;;7.38;51.50;99739.75;6200452;23;20009;-76
2022/03/31 09:02:07;;;;;;;3.58;1.80;;;;;;;6.96;52.47;99705.16;6205924;23;20036;-75
2022/03/31 09:04:41;;;;;;;4.85;1.60;;;;;;;6.84;53.71;99748.03;6178301;23;20008;-78
2022/03/31 09:07:12;;;;;;;;;;;;;;;8.62;50.71;99760.22;6200511;23;20024;-76
2022/03/31 09:09:45;;;;;;;2.38;1.63;;;;;;;10.59;45.03;99739.66;6227109;23;19969;-75
2022/03/31 09:12:11;;;;;;;1.90;1.27;;;;;;;10.10;44.64;99758.47;6199897;23;20004;-75
2022/03/31 09:14:48;;;;;;;6.55;1.67;;;;;;;8.61;47.12;99746.84;6200330;23;20005;-76
2022/03/31 09:17:15;;;;;;;3.08;1.42;;;;;;;7.41;49.53;99762.88;6224479;23;20031;-76
2022/03/31 09:19:46;;;;;;;2.35;1.25;;;;;;;6.55;52.04;99756.44;6175451;23;20009;-75
2022/03/31 09:22:11;;;;;;;2.15;1.20;;;;;;;6.15;53.65;99758.44;6199080;23;20012;-76
2022/03/31 09:24:57;;;;;;;2.45;1.33;;;;;;;6.15;54.88;99768.44;6174210;23;20043;-76
2022/03/31 09:27:48;;;;;;;3.10;1.50;;;;;;;6.24;55.11;99739.78;6222744;23;20072;-75
2022/03/31 09:30:18;;;;;;;1.23;1.10;;;;;;;6.55;54.96;99772.72;6200860;23;20005;-76
2022/03/31 09:32:51;;;;;;;1.58;1.10;;;;;;;6.45;53.88;99785.13;6200576;23;20031;-75
2022/03/31 09:35:35;;;;;;;1.33;1.00;;;;;;;6.40;55.08;99771.47;6201415;23;20092;-75
2022/03/31 09:38:15;;;;;;;1.65;1.30;;;;;;;6.10;55.82;99785.50;6176300;23;20016;-75
2022/03/31 09:40:44;;;;;;;2.45;0.98;;;;;;;5.76;56.40;99816.22;6225107;23;20071;-75
2022/03/31 09:43:09;;;;;;;3.75;1.50;;;;;;;5.66;57.42;99802.50;6226377;23;20001;-76
2022/03/31 09:48:25;;;;;;;7.93;1.15;;;;;;;5.52;58.78;99820.19;6215417;23;20039;-76
2022/03/31 09:51:00;;;;;;;3.63;1.20;;;;;;;5.57;58.44;99817.56;6174471;23;20034;-75
2022/03/31 09:53:57;;;;;;;;;;;;;;;;;;;;;
2022/03/31 09:56:38;;;;;;;;;;;;;;;;;;;;;
2022/03/31 09:59:07;;;;;;;1.25;0.90;;;;;;;8.39;52.80;99805.88;6224608;23;20464;-79
2022/03/31 10:01:35;;;;;;;3.22;1.58;;;;;;;9.29;50.37;99789.44;6196677;23;20011;-74
2022/03/31 10:04:31;;;;;;;2.42;1.17;;;;;;;9.68;49.16;99835.28;6224866;23;20012;-75
2022/03/31 10:06:58;;;;;;;4.07;1.30;;;;;;;8.87;49.19;99816.69;6215845;23;20038;-75
2022/03/31 10:09:31;;;;;;;1.20;0.98;;;;;;;8.02;50.91;99806.00;6198710;23;20038;-76
2022/03/31 10:12:24;;;;;;;3.08;1.00;;;;;;;7.42;51.99;99798.00;6225371;23;19997;-76
2022/03/31 10:15:04;;;;;;;1.45;0.60;;;;;;;7.78;53.33;99827.34;6196910;23;20042;-76
2022/03/31 10:17:31;;;;;;;10.43;1.48;;;;;;;8.36;51.97;99805.59;6222612;23;19996;-74
2022/03/31 10:20:13;;;;;;;4.07;1.20;;;;;;;9.05;49.61;99839.06;6224363;23;20005;-76
2022/03/31 10:25:37;;;;;;;3.15;1.00;;;;;;;7.36;51.70;99826.25;6203078;23;20014;-76
2022/03/31 10:28:21;;;;;;;3.35;0.80;;;;;;;7.51;51.80;99850.03;6199657;23;20491;-76
2022/03/31 10:31:01;;;;;;;1.50;0.90;;;;;;;9.77;49.60;99845.38;6225005;23;20000;-76
2022/03/31 10:33:29;;;;;;;4.03;1.08;;;;;;;13.99;39.29;99851.59;6198261;23;20004;-75
2022/03/31 10:36:10;;;;;;;11.10;1.30;;;;;;;14.39;35.86;99853.88;6224614;23;20065;-76
2022/03/31 10:38:37;;;;;;;5.53;0.90;;;;;;;13.81;36.65;99844.22;6199648;23;20011;-75
2022/03/31 10:41:09;;;;;;;2.90;0.88;;;;;;;16.45;33.49;99855.31;6198914;23;20008;-75
2022/03/31 10:43:39;;;;;;;7.15;1.00;;;;;;;20.12;27.46;99875.38;6200217;23;19993;-75
2022/03/31 10:46:28;;;;;;;1.60;0.75;;;;;;;20.42;25.65;99871.59;6228046;23;20008;-75
2022/03/31 10:48:57;;;;;;;2.53;0.90;;;;;;;22.55;24.52;99878.56;6180314;23;20204;-74
2022/03/31 10:51:45;;;;;;;1.65;0.70;;;;;;;23.95;20.99;99858.50;6197963;23;20036;-74
2022/03/31 10:54:27;;;;;;;2.90;0.73;;;;;;;26.63;17.63;99870.84;6199587;23;20034;-77
2022/03/31 10:57:02;;;;;;;4.45;0.88;;;;;;;26.91;17.48;99877.03;6228000;23;20031;-75
2022/03/31 10:59:27;;;;;;;2.40;0.80;;;;;;;27.70;17.58;99888.69;6201692;23;20028;-75
2022/03/31 11:01:55;;;;;;;4.57;1.20;;;;;;;29.32;14.70;99869.06;6173584;23;20015;-75
2022/03/31 11:04:21;;;;;;;4.75;1.17;;;;;;;28.20;15.80;99888.03;6177143;23;20005;-75
2022/03/31 11:28:19;;;;;;;1.92;0.68;;;;;;;24.88;16.60;99876.81;6221179;23;20035;-75
2022/03/31 11:30:46;;;;;;;5.95;0.88;;;;;;;20.77;19.78;99843.38;6194446;23;20127;-73
2022/03/31 11:33:13;;;;;;;2.72;0.80;;;;;;;17.75;22.94;99855.78;6222406;23;20009;-73
2022/03/31 11:36:00;;;;;;;4.93;1.05;;;;;;;17.22;25.07;99877.94;6218095;23;20090;-74
2022/03/31 11:38:28;;;;;;;4.20;0.98;;;;;;;20.93;20.58;99866.50;6193051;23;20009;-72
2022/03/31 11:40:56;;;;;;;3.33;0.80;;;;;;;22.37;19.45;99844.69;6167775;23;20012;-74
2022/03/31 11:43:22;;;;;;;4.70;0.75;;;;;;;27.18;16.03;99867.19;6217387;23;20024;-73
2022/03/31 11:45:56;;;;;;;1.67;0.57;;;;;;;29.15;14.29;99869.91;6190878;23;20020;-73
2022/03/31 11:48:41;;;;;;;5.28;0.85;;;;;;;27.92;13.36;99892.38;6214063;23;20012;-75
2022/03/31 11:51:08;;;;;;;3.58;0.77;;;;;;;23.30;15.80;99862.75;6217410;23;20000;-74
2022/03/31 11:53:42;;;;;;;4.22;0.93;;;;;;;22.20;17.77;99862.53;6217512;23;20000;-77
2022/03/31 11:56:15;;;;;;;9.07;1.13;;;;;;;25.99;14.57;99873.81;6194366;23;20072;-74
2022/03/31 11:58:47;;;;;;;4.60;1.50;;;;;;;26.08;14.80;99881.94;6193649;23;20010;-77
2022/03/31 12:01:25;;;;;;;;;;;;;;;;;;;;;
2022/03/31 12:04:49;;;;;;;3.53;1.00;;;;;;;30.66;11.61;99871.06;6222744;23;20039;-73
2022/03/31 12:07:44;;;;;;;4.60;0.85;;;;;;;34.24;9.96;99879.00;6099944;23;20002;-75
2022/03/31 12:10:46;;;;;;;;;;;;;;;;;;;;;
2022/03/31 12:13:30;;;;;;;5.45;1.05;;;;;;;29.49;12.58;99858.91;6211504;23;20031;-76
2022/03/31 12:20:24;;;;;;;;;;;;;;;;;;;;;
2022/03/31 12:22:59;;;;;;;4.80;1.33;;;;;;;27.87;13.56;99881.50;6219872;23;20039;-73
2022/03/31 12:26:09;;;;;;;;;;;;;;;;;;;;;
2022/03/31 12:29:24;;;;;;;2.92;0.85;;;;;;;19.07;20.08;99869.91;6217969;23;20039;-74
2022/03/31 12:32:37;;;;;;;;;;;;;;;;;;;;;
2022/03/31 12:36:05;;;;;;;;;;;;;;;;;;;;;
2022/03/31 12:45:38;;;;;;;1.08;0.63;;;;;;;24.31;15.35;99825.59;6043092;23;20017;-74
2022/03/31 12:48:09;;;;;;;3.35;1.00;;;;;;;19.91;18.69;99830.22;6191637;23;20019;-75
2022/03/31 12:50:44;;;;;;;6.68;0.88;;;;;;;17.32;21.36;99829.00;6189175;23;20012;-73
2022/03/31 12:53:10;;;;;;;2.50;0.88;;;;;;;15.85;23.19;99835.44;6190722;23;20146;-74
2022/03/31 12:55:37;;;;;;;2.38;0.68;;;;;;;15.09;23.91;99840.84;6188012;23;20098;-73
2022/03/31 12:58:05;;;;;;;7.95;0.98;;;;;;;16.38;23.25;99821.88;6163274;23;20008;-72
2022/03/31 13:00:34;;;;;;;3.45;0.88;;;;;;;21.78;18.19;99853.47;6189378;23;20005;-73